Flugplatz Hünsborn (EDKH)

Hier findest Du alle Informationen zum Flugplatz Hünsborn (EDKH).

Informationen für Piloten zum Flugplatz Hünsborn

Hier findest Du alle relevanten Informationen, die Du als Pilot benötigst, um Hünsborn anzufliegen.

Flugplatz: Hünsborn ICAO-Code: EDKH
Frequenz Turm: 130,125 Mhz GAFOR Gebiet: 36
Frequenz Ground: 130,125 Mhz Mogas: nein
Platzrunde: N 2300 ft Landegebühr: -
Platzhöhe: - Sunrise: 07:21 Uhr UTC
Pisten: 09/27 - 700 m x 30 m, GRAS Sunset: 15:54 Uhr UTC

Mitglieder, die in Hünsborn fliegen

Flugwetter am Flugplatz Hünsborn

Die METAR Information stammen aus EDGS (27.87 km entfernt).

METAR Code:
2021/01/12 12:50
EDGS 121250Z 26011KT 0200 R31/P2000D FG VV/// 02/02 Q1003

Flugschulen am Flugplatz Hünsborn

Am Flugplatz Hünsborn gibt es leider keine Flugschule.

Benachbarte Flugplätze und Flugschulen

Es gibt 20 weitere Flugplätze in einem Umkreis von 50 km um den Flugplatz Hünsborn.

Jetzt anmelden

Passwort vergessen

Umfrage Archiv

Seid Ihr aufgrund von Corona im Jahr 2020 mehr oder weniger geflogen als im Jahr zuvor?

weniger
45.9 %
gleich viel
32.4 %
mehr
21.6 %
Stimmen: 37 | Diskussion
Anzeige: Roland Aircraft
Statistik Alle Mitglieder

Aktuell sind 40 Besucher online, davon 1 Mitglied und 39 Gäste.


Mitglieder online:
dropi 

Anzeige: VFR Sprechfunk Simulator


Anzeige: Pocket FMS